Time;durP1;ratioP1;P1;durP2;ratioP2;P2;SDS_P1;SDS_P2;PMS_P1;PMS_P2;Temp;Humidity;BMP_temperature;BMP_pressure;BME280_temperature;BME280_humidity;BME280_pressure;Samples;Min_cycle;Max_cycle;Signal;HPM_P1;HPM_P2
2022/08/05 07:18:41;;;;;;;35.63;16.63;;;19.50;99.90;;;18.52;100.00;100997.06;5060315;28;20039;-79
2022/08/05 07:21:07;;;;;;;;;;;19.60;99.90;;;18.68;100.00;100997.59;5018542;28;20053;-76
2022/08/05 07:23:33;;;;;;;40.30;17.25;;;19.70;99.90;;;18.84;100.00;101008.81;5005607;28;20000;-76
2022/08/05 07:25:59;;;;;;;45.47;17.30;;;19.80;99.90;;;19.06;100.00;101013.34;5005233;28;20117;-77
2022/08/05 07:28:26;;;;;;;40.08;17.45;;;20.00;99.90;;;19.23;100.00;101004.03;5016633;28;20040;-77
2022/08/05 07:30:52;;;;;;;39.38;16.33;;;20.10;99.90;;;19.34;100.00;101005.00;5024233;28;20029;-76
2022/08/05 07:33:20;;;;;;;38.30;17.17;;;20.10;99.90;;;19.45;100.00;101002.31;5030423;28;20481;-77
2022/08/05 07:35:46;;;;;;;41.47;18.70;;;20.30;99.90;;;19.64;100.00;101001.72;5042315;28;20130;-77
2022/08/05 07:38:16;;;;;;;35.60;16.70;;;20.40;99.90;;;19.76;100.00;101006.09;5033019;28;20583;-77
2022/08/05 07:40:42;;;;;;;37.50;16.42;;;20.60;99.90;;;19.91;100.00;101003.13;5032479;28;20513;-77
2022/08/05 07:43:09;;;;;;;37.72;16.73;;;20.70;99.90;;;20.02;100.00;100995.94;5020646;28;20036;-77
2022/08/05 07:45:35;;;;;;;34.50;13.25;;;20.70;99.90;;;19.93;100.00;100983.31;5027632;28;20036;-77
2022/08/05 07:48:01;;;;;;;28.35;13.23;;;20.80;99.90;;;20.13;100.00;100995.06;4993923;28;20045;-77
2022/08/05 07:50:27;;;;;;;;;;;20.80;99.90;;;20.26;100.00;100990.41;5010616;28;20033;-77
2022/08/05 07:52:53;;;;;;;29.17;13.25;;;21.00;99.90;;;20.22;100.00;100985.44;5016918;28;19928;-76
2022/08/05 07:55:19;;;;;;;29.38;13.45;;;21.00;99.90;;;20.38;100.00;100985.84;5048568;28;20413;-76
2022/08/05 07:57:44;;;;;;;30.17;13.85;;;21.10;99.90;;;20.55;100.00;100983.56;5020635;28;20042;-76
2022/08/05 08:00:13;;;;;;;;;;;21.10;99.90;;;20.47;100.00;100978.84;5025390;28;20164;-77
2022/08/05 08:02:39;;;;;;;27.15;13.45;;;21.10;99.90;;;20.21;100.00;100960.50;5020855;28;19925;-77
2022/08/05 08:05:05;;;;;;;34.58;12.80;;;21.10;99.90;;;20.13;100.00;100954.97;5015359;28;20576;-77
2022/08/05 08:07:32;;;;;;;44.38;14.95;;;21.10;99.90;;;20.22;100.00;100967.56;5036018;28;20033;-77
2022/08/05 08:09:59;;;;;;;37.13;14.00;;;21.10;99.90;;;20.25;100.00;100985.16;5041899;28;20075;-77
2022/08/05 08:12:25;;;;;;;31.70;12.82;;;21.10;99.90;;;20.33;100.00;101013.97;5013445;28;20051;-78
2022/08/05 08:14:52;;;;;;;28.23;12.15;;;21.10;99.90;;;20.41;100.00;101035.53;4998604;28;20090;-77
2022/08/05 08:17:18;;;;;;;23.10;12.20;;;21.20;99.90;;;20.41;100.00;101033.72;5001515;28;20143;-77
2022/08/05 08:19:45;;;;;;;23.75;11.25;;;21.20;99.90;;;20.45;100.00;101032.50;4982621;28;20490;-76
2022/08/05 08:22:11;;;;;;;29.17;12.50;;;21.20;99.90;;;20.52;100.00;101027.47;5018795;28;20036;-76
2022/08/05 08:24:38;;;;;;;33.45;12.52;;;21.30;99.90;;;20.57;100.00;101036.00;5009733;28;20083;-76
2022/08/05 08:27:06;;;;;;;30.88;14.82;;;21.30;99.90;;;20.60;100.00;101017.00;4979886;28;20054;-78
2022/08/05 08:29:32;;;;;;;34.00;16.88;;;21.30;99.90;;;20.44;100.00;101022.75;4992317;28;20030;-78
2022/08/05 08:31:57;;;;;;;31.73;15.35;;;21.30;99.90;;;20.55;100.00;101023.69;5014372;28;20033;-76
2022/08/05 08:34:25;;;;;;;;;;;21.30;99.90;;;20.53;100.00;101017.63;5019651;28;20396;-76
2022/08/05 08:36:51;;;;;;;37.30;15.10;;;21.30;99.90;;;20.55;100.00;101032.56;5020506;28;19998;-78
2022/08/05 08:39:17;;;;;;;29.65;13.77;;;21.30;99.90;;;20.60;100.00;101024.19;4991356;28;20037;-77
2022/08/05 08:41:47;;;;;;;33.65;15.82;;;21.30;99.90;;;20.57;100.00;101011.91;4966038;28;20097;-76
2022/08/05 08:44:18;;;;;;;35.83;16.45;;;21.30;99.90;;;20.65;100.00;101014.81;4988334;28;20069;-77
2022/08/05 08:46:46;;;;;;;37.47;16.15;;;21.30;99.90;;;20.68;100.00;101006.50;4983773;28;20590;-77
2022/08/05 08:49:14;;;;;;;31.08;14.50;;;21.40;99.90;;;20.64;100.00;100999.72;5020347;28;20095;-78
2022/08/05 08:51:45;;;;;;;29.80;15.07;;;21.40;99.90;;;20.72;100.00;100995.56;4962219;28;20121;-78
2022/08/05 08:54:15;;;;;;;29.60;13.52;;;21.50;99.90;;;20.72;100.00;100988.38;4993538;28;20113;-78
2022/08/05 08:56:41;;;;;;;36.40;16.15;;;21.50;99.90;;;20.91;100.00;100990.31;4989109;28;20105;-78
2022/08/05 08:59:07;;;;;;;28.55;14.75;;;21.60;99.90;;;21.09;100.00;100982.53;4987795;28;20044;-78
2022/08/05 09:01:33;;;;;;;29.48;15.50;;;21.80;99.90;;;21.44;100.00;100994.69;5005009;28;20041;-78
2022/08/05 09:04:00;;;;;;;28.23;13.45;;;22.00;99.90;;;21.76;100.00;100999.00;4982947;28;20041;-77
2022/08/05 09:06:32;;;;;;;28.27;14.05;;;22.30;99.90;;;22.10;100.00;100986.09;5011925;22;20184;-79
2022/08/05 09:08:59;;;;;;;28.25;13.57;;;22.50;99.90;;;22.19;100.00;100990.59;4967050;28;20050;-78
2022/08/05 09:11:27;;;;;;;21.42;12.30;;;22.70;99.90;;;22.27;100.00;100982.72;4987940;28;20109;-78
2022/08/05 09:13:55;;;;;;;28.98;12.75;;;22.80;99.90;;;22.28;100.00;100984.41;4979234;28;20050;-79
2022/08/05 09:16:21;;;;;;;28.30;14.05;;;22.90;99.90;;;22.58;100.00;100995.97;4977310;28;20034;-78
2022/08/05 09:18:47;;;;;;;25.60;12.73;;;23.10;99.90;;;22.80;100.00;100996.66;4967759;28;20065;-78
2022/08/05 09:21:13;;;;;;;31.15;12.77;;;23.20;99.90;;;22.70;100.00;101002.06;4979570;28;20044;-78
2022/08/05 09:23:39;;;;;;;24.77;11.65;;;23.20;99.90;;;22.58;100.00;101004.03;4992251;28;20045;-78
2022/08/05 09:28:40;;;;;;;24.52;12.65;;;23.30;99.90;;;22.62;100.00;101002.75;5041697;23;20077;-78
2022/08/05 09:31:13;;;;;;;21.45;11.43;;;23.30;99.90;;;22.65;100.00;101001.63;5048417;28;20124;-78
2022/08/05 09:33:51;;;;;;;25.92;11.45;;;23.30;99.90;;;22.61;100.00;101002.88;5049012;28;20073;-78
2022/08/05 09:36:18;;;;;;;23.65;11.50;;;23.30;99.90;;;22.67;100.00;101007.69;5048925;28;20679;-78
2022/08/05 09:39:03;;;;;;;22.60;11.00;;;23.30;99.90;;;22.72;100.00;101008.09;4986198;28;20102;-78
2022/08/05 09:41:32;;;;;;;22.00;9.75;;;23.30;99.90;;;22.77;100.00;101013.06;5017964;28;20037;-78
2022/08/05 09:43:59;;;;;;;19.60;9.43;;;23.40;99.90;;;22.89;100.00;101009.19;5034158;28;20685;-78
2022/08/05 09:46:33;;;;;;;17.92;8.02;;;23.50;99.90;;;22.95;100.00;101011.31;5021149;28;20049;-76
2022/08/05 09:49:07;;;;;;;18.25;8.07;;;23.50;99.90;;;23.00;100.00;101005.50;5050201;28;20070;-77
2022/08/05 09:51:40;;;;;;;13.40;8.45;;;23.60;99.90;;;23.04;100.00;101007.78;5012686;28;20130;-77
2022/08/05 09:54:10;;;;;;;20.27;8.23;;;23.60;99.90;;;22.95;100.00;101014.00;5023377;28;20324;-77
2022/08/05 09:56:38;;;;;;;18.77;8.70;;;23.60;99.90;;;22.89;100.00;101009.19;5045668;28;20106;-77
2022/08/05 09:59:11;;;;;;;17.33;7.65;;;23.40;99.90;;;22.50;100.00;101009.25;5019138;28;20034;-78
2022/08/05 10:01:45;;;;;;;16.60;8.20;;;23.30;99.90;;;22.56;100.00;101003.31;5031557;28;20456;-77
2022/08/05 10:04:14;;;;;;;15.68;7.32;;;23.30;99.90;;;22.47;100.00;101006.88;5025263;28;20051;-77
2022/08/05 10:06:52;;;;;;;17.10;8.32;;;23.20;99.90;;;22.47;100.00;100991.63;5020877;28;20067;-76
2022/08/05 10:09:22;;;;;;;16.83;8.10;;;23.10;99.90;;;22.38;100.00;100983.59;5000894;28;20059;-77
2022/08/05 10:11:51;;;;;;;14.68;7.43;;;23.10;99.90;;;22.42;100.00;100993.88;4983213;28;20398;-77
2022/08/05 10:14:30;;;;;;;16.67;7.55;;;23.10;99.90;;;22.44;100.00;100994.59;5011515;28;20442;-77
2022/08/05 10:17:15;;;;;;;17.88;7.88;;;23.10;99.90;;;22.49;100.00;100994.16;5014513;28;20188;-77
2022/08/05 10:19:41;;;;;;;19.35;7.95;;;23.10;99.90;;;22.45;100.00;100998.13;5015771;28;20079;-77
2022/08/05 10:22:10;;;;;;;20.58;8.23;;;23.10;99.90;;;22.32;100.00;101006.44;5003742;28;20021;-77
2022/08/05 10:24:40;;;;;;;18.55;8.48;;;23.00;99.90;;;22.24;100.00;101009.81;5021838;28;20033;-77
2022/08/05 10:27:06;;;;;;;21.10;7.10;;;23.00;99.90;;;22.22;100.00;101013.59;5014142;28;20069;-77
2022/08/05 10:29:36;;;;;;;16.75;7.43;;;22.90;99.90;;;22.20;100.00;101018.25;5019511;28;20401;-77
2022/08/05 10:32:06;;;;;;;15.18;7.18;;;22.90;99.90;;;22.17;100.00;101008.66;5017844;28;20018;-77
2022/08/05 10:34:35;;;;;;;19.90;8.00;;;22.90;99.90;;;22.19;100.00;100989.75;5010254;28;20529;-77
2022/08/05 10:37:02;;;;;;;18.65;9.82;;;22.90;99.90;;;22.25;100.00;100984.72;5005769;28;20139;-77
2022/08/05 10:39:39;;;;;;;19.55;9.35;;;23.00;99.90;;;22.39;100.00;100994.16;5027980;28;20945;-76
2022/08/05 10:42:21;;;;;;;;;;;22.90;99.90;;;22.52;100.00;100992.03;5009578;28;20033;-77
2022/08/05 10:44:53;;;;;;;17.63;9.00;;;23.10;99.90;;;22.62;100.00;100993.88;5022279;28;19935;-77
2022/08/05 10:47:21;;;;;;;20.40;7.32;;;23.10;99.90;;;22.52;100.00;100994.69;5024282;28;20037;-77
2022/08/05 10:50:12;;;;;;;18.80;9.02;;;23.10;99.90;;;22.53;100.00;101003.63;5030624;28;20098;-77
2022/08/05 10:52:40;;;;;;;14.45;8.20;;;23.20;99.90;;;22.54;100.00;100999.94;4992275;28;20037;-77
2022/08/05 10:55:12;;;;;;;17.30;9.15;;;23.20;99.90;;;22.58;100.00;101005.88;5022577;28;20069;-77
2022/08/05 10:57:44;;;;;;;16.88;9.20;;;23.20;99.90;;;22.53;100.00;101009.00;5020217;28;20048;-77
2022/08/05 11:00:22;;;;;;;17.85;9.10;;;23.20;99.90;;;22.52;100.00;101005.44;5034148;28;20034;-77
2022/08/05 11:03:10;;;;;;;20.35;8.13;;;23.20;99.90;;;22.64;100.00;101016.88;5031681;28;20095;-77
2022/08/05 11:05:37;;;;;;;15.90;8.10;;;23.20;99.90;;;22.65;100.00;101018.56;5022254;28;20040;-77
2022/08/05 11:08:09;;;;;;;17.80;9.23;;;23.30;99.90;;;22.70;100.00;101021.69;5014346;28;20086;-78
2022/08/05 11:10:41;;;;;;;12.98;7.57;;;23.30;99.90;;;22.82;100.00;101018.84;5015407;28;20033;-77
2022/08/05 11:13:09;;;;;;;18.02;8.90;;;23.40;99.90;;;22.75;100.00;101013.19;5023396;28;20029;-78
2022/08/05 11:15:42;;;;;;;16.42;8.10;;;23.30;99.90;;;22.52;100.00;101012.66;5013840;28;20046;-78
2022/08/05 11:18:32;;;;;;;16.42;7.60;;;23.20;99.90;;;22.44;100.00;101007.13;4974161;28;20413;-78
2022/08/05 11:21:01;;;;;;;14.05;8.10;;;23.30;99.90;;;22.58;100.00;101004.03;5014018;28;20079;-78
2022/08/05 11:23:54;;;;;;;21.15;7.95;;;23.30;99.90;;;22.72;100.00;101011.66;5003962;28;20418;-78
2022/08/05 11:26:23;;;;;;;18.02;7.78;;;23.50;99.90;;;22.94;100.00;101018.53;5004812;28;20072;-78
2022/08/05 11:28:52;;;;;;;15.70;7.50;;;23.60;99.90;;;23.14;100.00;101019.34;4996173;28;20029;-78
2022/08/05 11:31:30;;;;;;;13.95;6.50;;;23.80;99.90;;;23.38;100.00;101018.00;4985281;28;20032;-78
2022/08/05 11:34:06;;;;;;;13.73;6.20;;;23.90;99.90;;;23.60;100.00;101021.28;4998066;28;20409;-79
2022/08/05 11:36:57;;;;;;;13.02;6.15;;;23.90;99.90;;;23.14;100.00;101018.50;4988992;28;20413;-79
2022/08/05 11:39:58;;;;;;;9.93;5.07;;;24.00;99.90;;;23.44;100.00;101019.25;5019556;28;20046;-79
2022/08/05 11:42:25;;;;;;;12.10;5.97;;;24.10;99.90;;;23.59;100.00;101033.03;4999647;28;20033;-78
2022/08/05 11:44:56;;;;;;;10.70;6.00;;;24.20;99.90;;;23.75;100.00;101014.41;4983554;28;20092;-79
2022/08/05 11:47:23;;;;;;;12.27;5.88;;;24.30;99.90;;;23.81;100.00;101016.53;4997202;28;20176;-79
2022/08/05 11:50:01;;;;;;;19.10;6.43;;;24.30;99.90;;;23.97;100.00;101021.22;4962504;28;20055;-79
2022/08/05 11:52:28;;;;;;;11.88;5.75;;;24.40;99.90;;;24.00;100.00;101023.63;4992592;28;20033;-79
2022/08/05 11:54:55;;;;;;;10.20;5.18;;;24.50;99.90;;;24.14;100.00;101024.94;4992661;28;20044;-79
2022/08/05 11:57:28;;;;;;;14.00;5.68;;;24.60;99.90;;;24.30;100.00;101030.50;5018441;28;20030;-79
2022/08/05 11:59:54;;;;;;;12.65;5.40;;;24.80;99.90;;;24.38;99.55;101040.47;5013008;28;20034;-78
2022/08/05 12:02:31;;;;;;;10.27;4.80;;;24.80;99.90;;;24.39;98.21;101039.50;5007735;28;20117;-79
2022/08/05 12:05:01;;;;;;;11.65;4.90;;;24.80;99.90;;;24.23;95.81;101042.84;5014042;28;20029;-79
2022/08/05 12:07:33;;;;;;;10.40;4.93;;;24.80;99.90;;;24.19;98.35;101049.56;4991730;28;20464;-79
2022/08/05 12:10:01;;;;;;;9.80;4.97;;;24.80;99.90;;;24.23;99.26;101042.00;5004544;28;20445;-79
2022/08/05 12:12:28;;;;;;;12.55;5.07;;;24.80;99.90;;;24.30;99.11;101035.88;5008130;28;20037;-79
2022/08/05 12:14:54;;;;;;;11.60;5.13;;;24.90;99.90;;;24.30;98.81;101041.25;4989787;28;20044;-78
2022/08/05 12:17:21;;;;;;;11.57;5.47;;;24.80;99.90;;;24.23;95.74;101048.22;5001223;28;20029;-79
2022/08/05 12:19:53;;;;;;;9.40;4.68;;;24.80;99.90;;;24.18;96.00;101055.94;5016084;28;20052;-78
2022/08/05 12:22:25;;;;;;;11.63;5.38;;;24.70;99.90;;;24.11;96.68;101058.38;5022633;28;20038;-79
2022/08/05 12:24:58;;;;;;;9.82;4.53;;;24.70;99.90;;;24.06;98.38;101057.13;5012052;28;20180;-78
2022/08/05 12:27:31;;;;;;;10.15;4.13;;;24.60;99.90;;;24.00;99.23;101055.06;4993127;28;20041;-79
2022/08/05 12:30:08;;;;;;;8.50;4.25;;;24.60;99.90;;;23.90;99.52;101072.09;4971981;28;20499;-79
2022/08/05 12:32:42;;;;;;;7.22;3.92;;;24.50;99.90;;;23.81;99.46;101073.00;5000538;28;20033;-78
2022/08/05 12:35:09;;;;;;;9.63;3.92;;;24.40;99.90;;;23.70;99.94;101070.47;5008525;28;20052;-79
2022/08/05 12:37:36;;;;;;;12.30;3.90;;;24.30;99.90;;;23.60;100.00;101073.19;5034618;28;20402;-78
2022/08/05 12:40:08;;;;;;;13.00;4.18;;;24.20;99.90;;;23.50;100.00;101077.78;4991951;28;20067;-79
2022/08/05 12:42:35;;;;;;;35.35;13.18;;;24.20;99.90;;;23.40;100.00;101071.59;5004018;28;20053;-78
2022/08/05 12:45:09;;;;;;;20.42;8.25;;;24.10;99.90;;;23.30;100.00;101072.47;5013341;28;20038;-78
2022/08/05 12:47:36;;;;;;;13.98;4.70;;;24.00;99.90;;;23.23;100.00;101060.59;5007337;28;20556;-79
2022/08/05 12:50:16;;;;;;;14.02;4.15;;;23.90;99.90;;;23.21;100.00;101059.06;5008076;28;20043;-77
2022/08/05 12:52:54;;;;;;;15.38;5.22;;;23.80;99.90;;;23.18;100.00;101052.13;5006870;28;20113;-76
2022/08/05 12:55:23;;;;;;;10.25;5.93;;;23.80;99.90;;;23.09;100.00;101047.66;4994637;28;20041;-77
2022/08/05 12:57:51;;;;;;;9.40;4.97;;;23.70;99.90;;;22.98;100.00;101048.63;5023012;28;20084;-77
2022/08/05 13:00:25;;;;;;;10.95;5.38;;;23.70;99.90;;;23.10;100.00;101058.22;5003678;28;20044;-77
2022/08/05 13:02:55;;;;;;;13.55;5.82;;;23.70;99.90;;;23.02;100.00;101060.78;5031836;28;20057;-77
2022/08/05 13:05:22;;;;;;;9.60;5.57;;;23.60;99.90;;;22.84;100.00;101055.28;5001152;28;20056;-78
2022/08/05 13:07:48;;;;;;;13.02;6.57;;;23.60;99.90;;;22.77;100.00;101050.63;4976818;28;20034;-77
2022/08/05 13:10:15;;;;;;;16.35;7.63;;;23.60;99.90;;;22.80;100.00;101071.81;4991034;28;20071;-77
2022/08/05 13:12:44;;;;;;;16.45;7.25;;;23.50;99.90;;;22.66;100.00;101065.91;4981055;28;20044;-77
2022/08/05 13:15:13;;;;;;;13.60;6.75;;;23.30;99.90;;;22.29;100.00;101071.13;5013405;28;20087;-78
2022/08/05 13:17:39;;;;;;;14.68;5.75;;;23.10;99.90;;;22.05;100.00;101068.75;5005286;28;20048;-78
2022/08/05 13:20:14;;;;;;;13.52;6.25;;;22.80;99.90;;;21.92;100.00;101067.19;4994210;28;20025;-78
2022/08/05 13:22:49;;;;;;;16.75;6.80;;;22.70;99.90;;;21.75;100.00;101070.53;5000114;28;20037;-77
2022/08/05 13:25:17;;;;;;;15.30;6.35;;;22.60;99.90;;;21.59;100.00;101078.22;5000428;28;20784;-78
2022/08/05 13:27:49;;;;;;;11.00;5.70;;;22.40;99.90;;;21.30;100.00;101073.53;5028230;28;20051;-78
2022/08/05 13:30:18;;;;;;;6.95;4.70;;;22.30;99.90;;;21.28;100.00;101079.00;4990263;28;20031;-77
2022/08/05 13:32:47;;;;;;;12.20;6.00;;;22.20;99.90;;;21.31;100.00;101085.94;5013015;28;20025;-77
2022/08/05 13:35:17;;;;;;;11.80;6.10;;;22.20;99.90;;;21.26;100.00;101077.47;5014816;28;20053;-77
2022/08/05 13:37:43;;;;;;;12.85;6.75;;;22.10;99.90;;;21.09;100.00;101087.78;4981799;28;20416;-77
2022/08/05 13:40:10;;;;;;;15.63;8.80;;;21.90;99.90;;;20.73;100.00;101083.69;5014833;28;20041;-77
2022/08/05 13:42:38;;;;;;;15.88;8.57;;;21.70;99.90;;;20.60;100.00;101097.25;5000036;28;20501;-78
2022/08/05 13:45:06;;;;;;;16.35;9.18;;;21.60;99.90;;;20.51;100.00;101095.31;5007044;28;20409;-77
2022/08/05 13:47:36;;;;;;;16.65;9.15;;;21.50;99.90;;;20.37;100.00;101104.50;4998678;28;20579;-78
2022/08/05 13:50:05;;;;;;;18.30;10.48;;;21.30;99.90;;;20.22;100.00;101100.41;5014457;28;20041;-77
2022/08/05 13:52:31;;;;;;;22.95;10.98;;;21.20;99.90;;;20.14;100.00;101105.50;4991098;28;20037;-76
2022/08/05 13:54:57;;;;;;;15.98;8.05;;;21.10;99.90;;;20.04;100.00;101114.28;5012439;28;20114;-77
2022/08/05 13:57:24;;;;;;;17.83;9.77;;;21.00;99.90;;;20.06;100.00;101108.78;5000072;28;20026;-77
2022/08/05 13:59:52;;;;;;;20.75;10.27;;;21.00;99.90;;;20.11;100.00;101109.28;5014803;28;20132;-77
2022/08/05 14:02:18;;;;;;;16.80;10.07;;;21.00;99.90;;;20.11;100.00;101098.59;5025124;28;20095;-77
2022/08/05 14:07:39;;;;;;;13.77;7.63;;;21.00;99.90;;;20.05;100.00;101101.75;4990983;28;20087;-77
2022/08/05 14:10:14;;;;;;;15.15;8.85;;;20.90;99.90;;;19.98;100.00;101117.44;4992392;28;20038;-77
2022/08/05 14:12:41;;;;;;;17.17;7.32;;;20.90;99.90;;;19.92;100.00;101123.28;4990552;28;20037;-77
2022/08/05 14:15:08;;;;;;;16.90;8.07;;;20.80;99.90;;;19.86;100.00;101121.94;5006393;28;20080;-78
2022/08/05 14:17:34;;;;;;;18.75;8.25;;;20.80;99.90;;;19.91;100.00;101128.72;5028929;28;20056;-77
2022/08/05 14:20:00;;;;;;;20.00;10.07;;;20.80;99.90;;;19.93;100.00;101110.75;5013197;28;20049;-75
2022/08/05 14:22:26;;;;;;;18.08;8.98;;;20.80;99.90;;;19.97;100.00;101110.38;5026281;28;20063;-76
2022/08/05 14:24:52;;;;;;;13.80;8.18;;;20.80;99.90;;;19.98;100.00;101117.44;5012957;28;20044;-75
2022/08/05 14:27:18;;;;;;;11.05;6.90;;;20.80;99.90;;;19.82;100.00;101125.81;4990820;28;20033;-76
2022/08/05 14:29:43;;;;;;;;;;;20.80;99.90;;;19.80;100.00;101122.41;5007131;28;20524;-77
2022/08/05 14:32:09;;;;;;;13.18;8.10;;;20.70;99.90;;;19.84;100.00;101126.53;5016826;28;19909;-77
2022/08/05 14:34:35;;;;;;;9.38;5.75;;;20.70;99.90;;;19.84;100.00;101123.88;5004781;28;20029;-77
2022/08/05 14:37:03;;;;;;;7.35;4.57;;;20.70;99.90;;;19.75;100.00;101126.44;4973218;28;20037;-77
2022/08/05 14:39:29;;;;;;;6.05;4.20;;;20.60;99.90;;;19.61;100.00;101130.16;5000178;28;21466;-77
2022/08/05 14:41:57;;;;;;;4.20;2.90;;;20.50;99.90;;;19.37;100.00;101139.13;4990421;28;20048;-77
2022/08/05 14:44:23;;;;;;;6.55;3.83;;;20.40;99.90;;;19.33;100.00;101131.44;5012478;28;20029;-77
2022/08/05 14:46:49;;;;;;;9.43;3.72;;;20.30;99.90;;;19.27;100.00;101136.28;5024547;28;20527;-77
2022/08/05 14:49:14;;;;;;;;;;;20.30;99.90;;;19.14;100.00;101132.88;5026516;28;20440;-77
2022/08/05 14:51:41;;;;;;;7.13;3.63;;;20.20;99.90;;;19.14;100.00;101127.53;5013495;28;19923;-78
2022/08/05 14:54:07;;;;;;;7.50;3.80;;;20.10;99.90;;;19.06;100.00;101133.44;5010088;28;20029;-78
2022/08/05 14:56:34;;;;;;;5.93;4.60;;;20.10;99.90;;;19.04;100.00;101132.69;5025861;28;20033;-77
2022/08/05 14:59:00;;;;;;;8.30;5.57;;;20.10;99.90;;;19.15;100.00;101145.22;5014323;28;20021;-78
2022/08/05 15:01:27;;;;;;;12.20;5.95;;;20.10;99.90;;;19.08;100.00;101149.34;4975095;28;20066;-78
2022/08/05 15:03:53;;;;;;;11.32;6.25;;;20.10;99.90;;;19.11;100.00;101154.44;5018444;28;20374;-78
2022/08/05 15:06:19;;;;;;;12.90;5.45;;;20.00;99.90;;;18.85;100.00;101159.06;4991634;28;20037;-78
2022/08/05 15:08:45;;;;;;;7.25;3.50;;;19.80;99.90;;;18.53;100.00;101154.28;5024338;28;20063;-79
2022/08/05 15:11:11;;;;;;;9.32;4.30;;;19.50;99.90;;;18.24;100.00;101167.91;5007254;28;20033;-78
2022/08/05 15:13:37;;;;;;;9.73;4.65;;;19.40;99.90;;;18.19;100.00;101172.72;5011570;28;20441;-78
2022/08/05 15:16:03;;;;;;;;;;;19.30;99.90;;;17.89;100.00;101170.41;5020740;28;20049;-78
2022/08/05 15:18:29;;;;;;;7.07;4.37;;;19.10;99.90;;;17.84;100.00;101175.22;4980491;28;19919;-79
2022/08/05 15:20:55;;;;;;;;;;;19.10;99.90;;;17.75;100.00;101167.84;4990774;28;20033;-79
2022/08/05 15:23:21;;;;;;;12.23;5.65;;;18.90;99.90;;;17.68;100.00;101175.41;5002738;28;19969;-78
2022/08/05 15:25:47;;;;;;;8.30;4.30;;;18.90;99.90;;;17.72;100.00;101178.72;5012919;28;20053;-79
2022/08/05 15:28:14;;;;;;;9.40;4.00;;;18.80;99.90;;;17.60;100.00;101180.38;5010073;28;20041;-79
2022/08/05 15:30:41;;;;;;;6.93;3.40;;;18.80;99.90;;;17.57;100.00;101191.28;4979218;28;20537;-77
2022/08/05 15:33:12;;;;;;;6.22;2.83;;;18.70;99.90;;;17.41;100.00;101199.47;5001231;28;20091;-80
2022/08/05 15:35:38;;;;;;;4.15;2.10;;;18.40;99.90;;;17.09;100.00;101197.16;4986211;28;20056;-78
2022/08/05 15:38:04;;;;;;;6.07;2.35;;;18.30;99.90;;;16.91;100.00;101198.34;4992467;28;20040;-78
2022/08/05 15:40:29;;;;;;;7.72;3.03;;;18.20;99.90;;;16.91;100.00;101207.22;5015728;28;20859;-77
2022/08/05 15:42:55;;;;;;;8.00;2.60;;;18.10;99.90;;;16.77;100.00;101208.06;4993766;28;20038;-78
2022/08/05 15:45:21;;;;;;;;;;;18.00;99.90;;;16.60;100.00;101217.13;4981766;28;20081;-77
2022/08/05 15:47:52;;;;;;;9.80;2.83;;;17.90;99.90;;;16.61;100.00;101226.81;4998730;28;19913;-78
2022/08/05 15:50:18;;;;;;;4.65;1.95;;;17.70;99.90;;;16.46;100.00;101234.88;4997989;28;20084;-79
2022/08/05 15:52:43;;;;;;;6.60;1.60;;;17.60;99.90;;;16.29;100.00;101222.69;5007781;28;20117;-78
2022/08/05 15:55:12;;;;;;;;;;;17.60;99.90;;;16.29;100.00;101217.38;5014092;28;20447;-78
2022/08/05 15:57:44;;;;;;;4.93;2.20;;;17.50;99.90;;;16.39;100.00;101229.09;5013581;28;19921;-77
2022/08/05 16:00:11;;;;;;;7.93;2.22;;;17.50;99.90;;;16.39;100.00;101223.78;5042540;28;20029;-77
2022/08/05 16:02:37;;;;;;;7.70;2.35;;;17.50;99.90;;;16.45;100.00;101218.09;5007416;28;20123;-77
2022/08/05 16:05:04;;;;;;;7.28;2.33;;;17.60;99.90;;;16.49;100.00;101222.28;5008692;28;20483;-78
2022/08/05 16:07:30;;;;;;;7.13;2.20;;;17.50;99.90;;;16.47;100.00;101231.28;5007086;28;20037;-78
2022/08/05 16:09:56;;;;;;;4.97;2.25;;;17.60;99.90;;;16.53;100.00;101244.19;5030563;28;20040;-78
2022/08/05 16:12:25;;;;;;;6.30;2.17;;;17.60;99.90;;;16.49;100.00;101245.34;5063455;28;20029;-79
2022/08/05 16:14:51;;;;;;;5.40;2.13;;;17.50;99.90;;;16.44;100.00;101248.31;5047279;28;20442;-79
2022/08/05 16:17:16;;;;;;;6.63;2.20;;;17.50;99.90;;;16.48;100.00;101244.50;5046434;28;20053;-79
2022/08/05 16:19:42;;;;;;;5.60;2.05;;;17.50;99.90;;;16.55;100.00;101237.84;5049474;28;20031;-78
2022/08/05 16:22:08;;;;;;;8.82;2.50;;;17.60;99.90;;;16.60;100.00;101238.38;5067298;23;20033;-80
2022/08/05 16:24:36;;;;;;;;;;;17.60;99.90;;;16.60;100.00;101233.06;5020821;28;20091;-80
2022/08/05 16:27:05;;;;;;;7.22;2.10;;;17.60;99.90;;;16.67;100.00;101230.88;5005448;28;19957;-80
2022/08/05 16:29:31;;;;;;;8.40;2.20;;;17.60;99.90;;;16.60;100.00;101233.06;4993053;28;20398;-80
2022/08/05 16:31:58;;;;;;;6.70;2.10;;;17.70;99.90;;;16.68;100.00;101234.41;5019940;28;20038;-79
2022/08/05 16:34:25;;;;;;;5.65;1.60;;;17.70;99.90;;;16.63;100.00;101241.78;5003583;28;20161;-82
2022/08/05 16:36:52;;;;;;;13.30;2.05;;;17.60;99.90;;;16.56;100.00;101244.84;5004655;28;20037;-82
2022/08/05 16:39:21;;;;;;;6.80;2.08;;;17.60;99.90;;;16.59;100.00;101247.31;5002717;28;20083;-82
2022/08/05 16:41:47;;;;;;;5.38;1.80;;;17.60;99.90;;;16.50;100.00;101247.91;5005226;28;20058;-81
2022/08/05 16:44:16;;;;;;;3.90;1.95;;;17.50;99.90;;;16.38;100.00;101256.66;5003297;28;20021;-81
2022/08/05 16:46:50;;;;;;;7.78;2.00;;;17.40;99.90;;;16.31;100.00;101263.31;4989559;28;20116;-81
2022/08/05 16:49:16;;;;;;;3.95;1.63;;;17.40;99.90;;;16.36;100.00;101262.06;4987747;28;20030;-82
2022/08/05 16:51:42;;;;;;;9.20;1.55;;;17.40;99.90;;;16.34;100.00;101271.94;5004425;28;20030;-81
2022/08/05 16:54:08;;;;;;;3.53;1.55;;;17.40;99.90;;;16.33;100.00;101272.03;5006137;28;20040;-81
2022/08/05 16:56:42;;;;;;;;;;;17.40;99.90;;;16.13;100.00;101290.06;5003923;28;20474;-81
2022/08/05 16:59:09;;;;;;;6.05;1.50;;;17.30;99.90;;;16.12;100.00;101300.78;5005527;28;19948;-82
2022/08/05 17:01:37;;;;;;;5.97;1.40;;;17.20;99.90;;;16.05;100.00;101316.22;5003471;28;20037;-83
2022/08/05 17:04:12;;;;;;;8.68;1.65;;;17.20;99.90;;;16.07;100.00;101318.78;5005388;28;20653;-80
2022/08/05 17:06:38;;;;;;;5.63;1.92;;;17.20;99.90;;;16.07;100.00;101309.03;5019799;28;20478;-82
2022/08/05 17:09:04;;;;;;;9.38;2.05;;;17.20;99.90;;;16.15;100.00;101311.19;5003960;28;20038;-82
2022/08/05 17:11:30;;;;;;;;;;;17.20;99.90;;;16.09;100.00;101322.19;5038268;28;20018;-83
2022/08/05 17:14:01;;;;;;;5.13;2.08;;;17.20;99.90;;;16.04;100.00;101319.81;5004118;28;20370;-83
2022/08/05 17:16:27;;;;;;;11.88;2.20;;;17.20;99.90;;;16.12;100.00;101320.22;5005556;28;20079;-83
2022/08/05 17:18:53;;;;;;;4.43;1.73;;;17.20;99.90;;;16.16;100.00;101320.91;5018138;28;20022;-82
2022/08/05 17:21:19;;;;;;;;;;;17.20;99.90;;;16.12;100.00;101317.56;5003065;28;20118;-84
2022/08/05 17:23:44;;;;;;;11.23;1.90;;;17.20;99.90;;;16.12;100.00;101317.56;5021332;28;19913;-82
2022/08/05 17:26:15;;;;;;;;;;;17.20;99.90;;;16.12;100.00;101306.09;5005673;28;20027;-83
2022/08/05 17:28:41;;;;;;;9.68;2.00;;;17.20;99.90;;;16.19;100.00;101312.72;5003606;28;19909;-81
2022/08/05 17:31:06;;;;;;;7.10;1.73;;;17.20;99.90;;;16.21;100.00;101313.50;5003743;28;20046;-83
2022/08/05 17:33:32;;;;;;;;;;;17.20;99.90;;;16.09;100.00;101300.94;5017234;28;20038;-82
2022/08/05 17:35:58;;;;;;;5.95;1.20;;;17.20;99.90;;;16.08;100.00;101308.06;5005559;28;19909;-82